Time;durP1;ratioP1;P1;durP2;ratioP2;P2;SDS_P1;SDS_P2;PMS_P1;PMS_P2;Temp;Humidity;BMP_temperature;BMP_pressure;BME280_temperature;BME280_humidity;BME280_pressure;Samples;Min_cycle;Max_cycle;Signal;HPM_P1;HPM_P2
2022/10/31 00:00:38;;;;;;;5.72;4.55;;;19.60;99.90;;;;;;4145095;28;20239;-75
2022/10/31 00:02:40;;;;;;;6.05;4.68;;;19.60;99.90;;;;;;4144823;28;20303;-75
2022/10/31 00:04:43;;;;;;;6.50;4.50;;;19.60;99.90;;;;;;4145177;28;20237;-75
2022/10/31 00:06:46;;;;;;;5.18;4.65;;;19.60;99.90;;;;;;4144862;28;20236;-75
2022/10/31 00:08:52;;;;;;;5.40;3.90;;;19.60;99.90;;;;;;4144893;28;20279;-75
2022/10/31 00:10:56;;;;;;;7.05;4.63;;;19.60;99.90;;;;;;4145326;28;20220;-75
2022/10/31 00:12:58;;;;;;;5.68;4.50;;;19.60;99.90;;;;;;4134506;28;20307;-75
2022/10/31 00:15:00;;;;;;;6.72;4.13;;;19.60;99.90;;;;;;4135296;28;20218;-75
2022/10/31 00:17:03;;;;;;;7.45;4.78;;;19.60;99.90;;;;;;4144673;28;20248;-75
2022/10/31 00:19:07;;;;;;;6.80;4.63;;;19.60;99.90;;;;;;4144559;28;20630;-75
2022/10/31 00:21:11;;;;;;;4.97;4.38;;;19.60;99.90;;;;;;4145628;28;20291;-75
2022/10/31 00:23:13;;;;;;;7.43;4.97;;;19.60;99.90;;;;;;4144820;28;20221;-75
2022/10/31 00:25:15;;;;;;;5.47;4.40;;;19.60;99.90;;;;;;4145466;28;20221;-75
2022/10/31 00:27:18;;;;;;;6.55;4.82;;;19.60;99.90;;;;;;4142985;28;20255;-75
2022/10/31 00:29:20;;;;;;;8.27;4.65;;;19.60;99.90;;;;;;4144475;28;20665;-76
2022/10/31 00:31:22;;;;;;;5.38;4.38;;;19.60;99.90;;;;;;4151912;28;20593;-75
2022/10/31 00:33:25;;;;;;;5.97;4.32;;;19.60;99.90;;;;;;4144753;28;20236;-75
2022/10/31 00:35:27;;;;;;;5.47;4.22;;;19.50;99.90;;;;;;4143902;28;20229;-75
2022/10/31 00:37:30;;;;;;;6.38;4.20;;;19.50;99.90;;;;;;4146131;28;20283;-75
2022/10/31 00:39:33;;;;;;;6.38;4.38;;;19.60;99.90;;;;;;4143895;28;20583;-75
2022/10/31 00:41:35;;;;;;;5.90;4.82;;;19.50;99.90;;;;;;4143600;28;20288;-75
2022/10/31 00:43:37;;;;;;;5.60;4.65;;;19.60;99.90;;;;;;4145470;28;20618;-75
2022/10/31 00:45:40;;;;;;;5.57;4.20;;;19.50;99.90;;;;;;4144441;28;20229;-76
2022/10/31 00:47:42;;;;;;;6.28;4.97;;;19.50;99.90;;;;;;4146537;28;20323;-76
2022/10/31 00:49:44;;;;;;;6.95;4.60;;;19.50;99.90;;;;;;4145813;28;20283;-75
2022/10/31 00:51:46;;;;;;;6.28;4.88;;;19.50;99.90;;;;;;4144657;28;20221;-75
2022/10/31 00:53:50;;;;;;;5.30;4.30;;;19.50;99.90;;;;;;4145026;28;20713;-75
2022/10/31 00:55:53;;;;;;;5.63;4.20;;;19.50;99.90;;;;;;4144931;28;20220;-76
2022/10/31 00:57:55;;;;;;;6.70;4.75;;;19.50;99.90;;;;;;4144518;28;20220;-75
2022/10/31 00:59:57;;;;;;;6.82;5.07;;;19.50;99.90;;;;;;4143097;28;20220;-75
2022/10/31 01:01:59;;;;;;;6.30;4.60;;;19.50;99.90;;;;;;4153132;28;20290;-75
2022/10/31 01:04:02;;;;;;;5.88;4.25;;;19.50;99.90;;;;;;4145113;28;20217;-75
2022/10/31 01:06:07;;;;;;;6.60;5.35;;;19.50;99.90;;;;;;4145997;28;20233;-75
2022/10/31 01:08:09;;;;;;;6.00;4.70;;;19.50;99.90;;;;;;4150405;28;20714;-75
2022/10/31 01:10:13;;;;;;;7.40;4.90;;;19.50;99.90;;;;;;4145188;28;20221;-75
2022/10/31 01:12:15;;;;;;;5.75;4.40;;;19.50;99.90;;;;;;4141603;28;20221;-75
2022/10/31 01:14:17;;;;;;;6.93;4.90;;;19.50;99.90;;;;;;4138544;28;20240;-75
2022/10/31 01:16:22;;;;;;;7.97;4.20;;;19.50;99.90;;;;;;4145411;28;20217;-75
2022/10/31 01:18:24;;;;;;;6.18;4.72;;;19.50;99.90;;;;;;4149712;28;20632;-75
2022/10/31 01:20:26;;;;;;;6.53;4.72;;;19.50;99.90;;;;;;4145289;28;20271;-75
2022/10/31 01:22:29;;;;;;;7.10;4.65;;;19.50;99.90;;;;;;4145280;28;20748;-75
2022/10/31 01:24:31;;;;;;;5.82;4.85;;;19.50;99.90;;;;;;4143965;28;20598;-75
2022/10/31 01:26:35;;;;;;;6.20;4.80;;;19.50;99.90;;;;;;4156943;28;20270;-75
2022/10/31 01:28:39;;;;;;;5.18;4.65;;;19.50;99.90;;;;;;4159337;28;20225;-75
2022/10/31 01:30:41;;;;;;;7.32;5.00;;;19.50;99.90;;;;;;4153018;28;20225;-75
2022/10/31 01:32:43;;;;;;;5.20;4.70;;;19.50;99.90;;;;;;4148452;28;20213;-75
2022/10/31 01:34:46;;;;;;;6.20;5.10;;;19.50;99.90;;;;;;4148020;28;20240;-75
2022/10/31 01:36:50;;;;;;;6.22;5.00;;;19.50;99.90;;;;;;4151350;28;20225;-75
2022/10/31 01:38:55;;;;;;;5.55;4.60;;;19.40;99.90;;;;;;4155140;28;20777;-75
2022/10/31 01:40:58;;;;;;;6.75;4.93;;;19.50;99.90;;;;;;4151317;28;20279;-75
2022/10/31 01:43:01;;;;;;;5.75;4.55;;;19.50;99.90;;;;;;4156599;28;20220;-74
2022/10/31 01:45:05;;;;;;;6.60;4.85;;;19.40;99.90;;;;;;4149099;28;20272;-75
2022/10/31 01:47:12;;;;;;;4.80;4.28;;;19.50;99.90;;;;;;4151708;28;20212;-74
2022/10/31 01:49:19;;;;;;;6.57;4.88;;;19.50;99.90;;;;;;4150012;28;20316;-75
2022/10/31 01:51:26;;;;;;;7.40;5.10;;;19.40;99.90;;;;;;4149197;28;20743;-75
2022/10/31 01:53:29;;;;;;;4.97;4.47;;;19.50;99.90;;;;;;4143430;28;20216;-75
2022/10/31 01:55:34;;;;;;;6.03;4.75;;;19.50;99.90;;;;;;4153938;28;20245;-75
2022/10/31 01:57:40;;;;;;;6.25;4.47;;;19.50;99.90;;;;;;4131967;28;20721;-75
2022/10/31 01:59:48;;;;;;;6.47;4.85;;;19.50;99.90;;;;;;4143036;28;20214;-75
2022/10/31 02:01:52;;;;;;;5.30;4.78;;;19.40;99.90;;;;;;4147916;28;20303;-75
2022/10/31 02:03:56;;;;;;;7.97;5.30;;;19.40;99.90;;;;;;4159399;28;20250;-76
2022/10/31 02:05:59;;;;;;;6.05;5.05;;;19.40;99.90;;;;;;4164380;28;20266;-76
2022/10/31 02:08:05;;;;;;;6.18;4.82;;;19.50;99.90;;;;;;4158992;28;20229;-76
2022/10/31 02:10:08;;;;;;;5.85;4.60;;;19.40;99.90;;;;;;4146514;28;20217;-76
2022/10/31 02:12:12;;;;;;;6.93;4.70;;;19.40;99.90;;;;;;4146826;28;20213;-76
2022/10/31 02:14:14;;;;;;;7.32;5.25;;;19.40;99.90;;;;;;4146501;28;20744;-76
2022/10/31 02:16:18;;;;;;;5.28;4.57;;;19.40;99.90;;;;;;4137696;28;20218;-76
2022/10/31 02:18:21;;;;;;;5.57;4.38;;;19.40;99.90;;;;;;4137917;28;20214;-76
2022/10/31 02:20:28;;;;;;;6.13;4.85;;;19.40;99.90;;;;;;4146112;28;20205;-76
2022/10/31 02:22:38;;;;;;;6.53;4.82;;;19.40;99.90;;;;;;4134622;28;20268;-76
2022/10/31 02:24:59;;;;;;;6.15;4.93;;;19.40;99.90;;;;;;4139115;28;20236;-76
2022/10/31 02:27:28;;;;;;;5.90;4.80;;;19.40;99.90;;;;;;4146200;28;20226;-76
2022/10/31 02:30:06;;;;;;;6.45;4.72;;;19.40;99.90;;;;;;4145638;28;20267;-76
2022/10/31 02:32:18;;;;;;;7.57;5.35;;;19.40;99.90;;;;;;4146428;28;20557;-76
2022/10/31 02:34:26;;;;;;;5.90;4.55;;;19.40;99.90;;;;;;4145724;28;20271;-76
2022/10/31 02:36:36;;;;;;;6.35;4.75;;;19.40;99.90;;;;;;4143865;28;20212;-75
2022/10/31 02:38:51;;;;;;;6.03;5.00;;;19.40;99.90;;;;;;4146604;28;20267;-76
2022/10/31 02:41:02;;;;;;;8.18;5.32;;;19.40;99.90;;;;;;4146099;28;20306;-76
2022/10/31 02:43:12;;;;;;;5.95;5.07;;;19.40;99.90;;;;;;4145287;28;20267;-76
2022/10/31 02:45:24;;;;;;;5.75;4.38;;;19.40;99.90;;;;;;4150334;28;20216;-76
2022/10/31 02:47:31;;;;;;;6.28;4.80;;;19.40;99.90;;;;;;4147432;28;20217;-76
2022/10/31 02:49:37;;;;;;;7.35;5.18;;;19.40;99.90;;;;;;4145544;28;20224;-76
2022/10/31 02:51:40;;;;;;;6.53;4.45;;;19.40;99.90;;;;;;4144683;28;20231;-76
2022/10/31 02:53:42;;;;;;;6.20;5.05;;;19.40;99.90;;;;;;4147394;28;20213;-75
2022/10/31 02:55:57;;;;;;;7.55;5.45;;;19.40;99.90;;;;;;4148226;28;20240;-76
2022/10/31 02:58:03;;;;;;;5.55;4.82;;;19.40;99.90;;;;;;4146875;28;20235;-75
2022/10/31 03:00:08;;;;;;;5.65;4.90;;;19.40;99.90;;;;;;4146130;28;20624;-76
2022/10/31 03:02:31;;;;;;;6.32;4.63;;;19.40;99.90;;;;;;4145501;28;20253;-76
2022/10/31 03:04:46;;;;;;;5.10;4.53;;;19.40;99.90;;;;;;4140236;28;20225;-76
2022/10/31 03:06:55;;;;;;;5.57;4.25;;;19.40;99.90;;;;;;4145170;28;20272;-75
2022/10/31 03:09:10;;;;;;;5.78;4.68;;;19.40;99.90;;;;;;4146423;28;20248;-76
2022/10/31 03:11:13;;;;;;;7.50;4.80;;;19.40;99.90;;;;;;4145647;28;20299;-76
2022/10/31 03:13:23;;;;;;;7.93;5.18;;;19.40;99.90;;;;;;4144786;28;20217;-76
2022/10/31 03:15:31;;;;;;;6.20;4.53;;;19.40;99.90;;;;;;4144899;28;20241;-75
2022/10/31 03:17:38;;;;;;;5.40;4.68;;;19.40;99.90;;;;;;4156348;28;20227;-75
2022/10/31 03:19:44;;;;;;;6.32;4.90;;;19.40;99.90;;;;;;4147397;28;20232;-76
2022/10/31 03:21:49;;;;;;;5.50;4.85;;;19.40;99.90;;;;;;4145106;28;20697;-76
2022/10/31 03:23:54;;;;;;;5.97;4.60;;;19.40;99.90;;;;;;4150347;28;20213;-76
2022/10/31 03:25:57;;;;;;;5.72;4.60;;;19.40;99.90;;;;;;4145045;28;20216;-75
2022/10/31 03:28:03;;;;;;;6.82;5.22;;;19.40;99.90;;;;;;4145300;28;20225;-75
2022/10/31 03:30:07;;;;;;;6.93;4.97;;;19.40;99.90;;;;;;4144975;28;20303;-75
2022/10/31 03:32:14;;;;;;;4.95;4.25;;;19.40;99.90;;;;;;4145361;28;20335;-75
2022/10/31 03:34:20;;;;;;;6.00;4.90;;;19.30;99.90;;;;;;4145342;28;20229;-75
2022/10/31 03:36:23;;;;;;;5.65;4.55;;;19.40;99.90;;;;;;4144824;28;20286;-75
2022/10/31 03:38:26;;;;;;;7.97;4.75;;;19.40;99.90;;;;;;4146082;28;20669;-75
2022/10/31 03:40:30;;;;;;;6.05;4.80;;;19.40;99.90;;;;;;4145220;28;20606;-75
2022/10/31 03:42:35;;;;;;;5.90;4.80;;;19.30;99.90;;;;;;4145041;28;20217;-75
2022/10/31 03:44:40;;;;;;;5.75;4.13;;;19.40;99.90;;;;;;4148687;28;20229;-75
2022/10/31 03:46:44;;;;;;;5.03;4.45;;;19.30;99.90;;;;;;4143592;28;20275;-75
2022/10/31 03:48:46;;;;;;;5.13;4.60;;;19.40;99.90;;;;;;4146051;28;20578;-75
2022/10/31 03:50:58;;;;;;;5.53;4.32;;;19.40;99.90;;;;;;4145404;28;20224;-74
2022/10/31 03:53:06;;;;;;;5.72;4.55;;;19.30;99.90;;;;;;4144973;28;20213;-75
2022/10/31 03:55:13;;;;;;;6.07;4.53;;;19.30;99.90;;;;;;4145207;28;20620;-75
2022/10/31 03:57:22;;;;;;;5.72;4.57;;;19.30;99.90;;;;;;4146103;28;20279;-76
2022/10/31 03:59:28;;;;;;;6.28;4.90;;;19.40;99.90;;;;;;4144518;28;20213;-76
2022/10/31 04:01:33;;;;;;;5.53;4.65;;;19.30;99.90;;;;;;4144236;28;20233;-75
2022/10/31 04:03:38;;;;;;;7.53;4.60;;;19.30;99.90;;;;;;4144669;28;20634;-75
2022/10/31 04:05:43;;;;;;;7.18;4.70;;;19.30;99.90;;;;;;4141069;28;20263;-75
2022/10/31 04:07:51;;;;;;;5.75;4.63;;;19.30;99.90;;;;;;4132377;28;20222;-75
2022/10/31 04:09:54;;;;;;;5.55;4.43;;;19.30;99.90;;;;;;4139132;28;20627;-76
2022/10/31 04:11:59;;;;;;;6.47;5.07;;;19.30;99.90;;;;;;4144594;28;20555;-76
2022/10/31 04:14:02;;;;;;;7.97;4.78;;;19.30;99.90;;;;;;4143522;28;20268;-75
2022/10/31 04:16:06;;;;;;;6.80;5.07;;;19.30;99.90;;;;;;4144863;28;20244;-76
2022/10/31 04:18:08;;;;;;;5.95;4.50;;;19.30;99.90;;;;;;4144602;28;20210;-76
2022/10/31 04:20:11;;;;;;;6.10;4.40;;;19.30;99.90;;;;;;4145125;28;20229;-75
2022/10/31 04:22:14;;;;;;;5.35;4.70;;;19.30;99.90;;;;;;4144998;28;20229;-76
2022/10/31 04:24:17;;;;;;;6.18;4.95;;;19.30;99.90;;;;;;4151823;28;20307;-76
2022/10/31 04:26:20;;;;;;;6.13;4.63;;;19.30;99.90;;;;;;4143733;28;20221;-76
2022/10/31 04:28:22;;;;;;;4.65;4.13;;;19.30;99.90;;;;;;4146908;28;20669;-76
2022/10/31 04:30:24;;;;;;;6.22;4.72;;;19.30;99.90;;;;;;4144634;28;20225;-75
2022/10/31 04:32:27;;;;;;;6.43;5.32;;;19.30;99.90;;;;;;4144725;28;20221;-76
2022/10/31 04:34:29;;;;;;;5.45;4.50;;;19.30;99.90;;;;;;4143544;28;20217;-76
2022/10/31 04:36:31;;;;;;;6.47;4.60;;;19.30;99.90;;;;;;4144867;28;20295;-76
2022/10/31 04:38:34;;;;;;;7.20;5.00;;;19.30;99.90;;;;;;4144504;28;20224;-76
2022/10/31 04:40:37;;;;;;;6.43;4.25;;;19.30;99.90;;;;;;4144339;28;20225;-76
2022/10/31 04:42:40;;;;;;;7.22;4.90;;;19.30;99.90;;;;;;4145533;28;20268;-75
2022/10/31 04:44:42;;;;;;;6.10;4.70;;;19.30;99.90;;;;;;4144610;28;20225;-76
2022/10/31 04:46:44;;;;;;;6.43;4.32;;;19.30;99.90;;;;;;4145785;28;20225;-75
2022/10/31 04:48:47;;;;;;;6.65;4.65;;;19.30;99.90;;;;;;4146204;28;20225;-76
2022/10/31 04:50:49;;;;;;;5.47;4.18;;;19.30;99.90;;;;;;4145354;28;20263;-76
2022/10/31 04:52:51;;;;;;;4.93;4.30;;;19.30;99.90;;;;;;4138104;28;20625;-75
2022/10/31 04:54:54;;;;;;;5.53;4.40;;;19.20;99.90;;;;;;4145545;28;20220;-75
2022/10/31 04:56:57;;;;;;;6.35;4.75;;;19.30;99.90;;;;;;4144483;28;20692;-75
2022/10/31 04:59:00;;;;;;;6.10;4.95;;;19.30;99.90;;;;;;4146894;28;20665;-75
2022/10/31 05:01:02;;;;;;;6.13;4.65;;;19.30;99.90;;;;;;4147355;28;20247;-76
2022/10/31 05:03:04;;;;;;;5.70;4.50;;;19.30;99.90;;;;;;4147419;28;20283;-75
2022/10/31 05:05:07;;;;;;;5.97;4.43;;;19.30;99.90;;;;;;4148424;28;20225;-75
2022/10/31 05:07:09;;;;;;;6.15;4.28;;;19.30;99.90;;;;;;4148791;28;20213;-75
2022/10/31 05:09:12;;;;;;;8.68;4.45;;;19.30;99.90;;;;;;4149020;28;20992;-75
2022/10/31 05:11:14;;;;;;;5.85;4.50;;;19.30;99.90;;;;;;4146329;28;20673;-76
2022/10/31 05:13:17;;;;;;;5.00;4.22;;;19.30;99.90;;;;;;4146018;28;20233;-75
2022/10/31 05:15:22;;;;;;;6.63;4.90;;;19.30;99.90;;;;;;4146675;28;20213;-75
2022/10/31 05:17:24;;;;;;;7.18;4.45;;;19.30;99.90;;;;;;4148598;28;20298;-75
2022/10/31 05:19:26;;;;;;;7.13;4.80;;;19.30;99.90;;;;;;4146638;28;20221;-75
2022/10/31 05:21:29;;;;;;;4.95;4.00;;;19.30;99.90;;;;;;4148865;28;20229;-75
2022/10/31 05:23:31;;;;;;;5.50;4.35;;;19.30;99.90;;;;;;4151687;28;20217;-74
2022/10/31 05:25:33;;;;;;;6.85;5.00;;;19.30;99.90;;;;;;4147171;28;20213;-75
2022/10/31 05:27:35;;;;;;;6.75;4.50;;;19.20;99.90;;;;;;4155825;28;20719;-75
2022/10/31 05:29:39;;;;;;;5.47;4.15;;;19.30;99.90;;;;;;4148910;28;20213;-75
2022/10/31 05:31:41;;;;;;;5.10;4.15;;;19.30;99.90;;;;;;4147161;28;20665;-75
2022/10/31 05:33:44;;;;;;;7.15;4.43;;;19.30;99.90;;;;;;4147645;28;20332;-75
2022/10/31 05:35:46;;;;;;;5.85;4.80;;;19.20;99.90;;;;;;4148619;28;20217;-75
2022/10/31 05:37:48;;;;;;;4.85;3.97;;;19.30;99.90;;;;;;4148686;28;20257;-75
2022/10/31 05:39:50;;;;;;;5.03;4.03;;;19.20;99.90;;;;;;4145769;28;20274;-75
2022/10/31 05:41:53;;;;;;;6.30;4.85;;;19.20;99.90;;;;;;4147194;28;20267;-75
2022/10/31 05:43:55;;;;;;;4.95;4.00;;;19.20;99.90;;;;;;4147308;28;20221;-75
2022/10/31 05:45:59;;;;;;;5.85;4.53;;;19.20;99.90;;;;;;4147310;28;20217;-76
2022/10/31 05:48:02;;;;;;;6.30;4.55;;;19.20;99.90;;;;;;4148009;28;20228;-76
2022/10/31 05:50:05;;;;;;;11.23;4.60;;;19.30;99.90;;;;;;4146593;28;20624;-76
2022/10/31 05:52:08;;;;;;;5.35;4.18;;;19.30;99.90;;;;;;4141956;28;20294;-76
2022/10/31 05:54:10;;;;;;;5.00;4.50;;;19.20;99.90;;;;;;4148835;28;20678;-76
2022/10/31 05:56:12;;;;;;;5.35;4.32;;;19.20;99.90;;;;;;4148345;28;20277;-76
2022/10/31 05:58:14;;;;;;;6.40;4.57;;;19.20;99.90;;;;;;4146814;28;20267;-77
2022/10/31 06:00:20;;;;;;;5.70;4.30;;;19.20;99.90;;;;;;4146988;28;20213;-76
2022/10/31 06:02:25;;;;;;;5.88;4.53;;;19.20;99.90;;;;;;4148411;28;20241;-76
2022/10/31 06:04:27;;;;;;;5.07;4.28;;;19.20;99.90;;;;;;4148681;28;20328;-76
2022/10/31 06:06:29;;;;;;;6.38;4.60;;;19.20;99.90;;;;;;4147856;28;20217;-75
2022/10/31 06:08:31;;;;;;;5.93;4.15;;;19.20;99.90;;;;;;4146222;28;20263;-75
2022/10/31 06:10:34;;;;;;;5.57;4.30;;;19.20;99.90;;;;;;4145143;28;20264;-75
2022/10/31 06:12:37;;;;;;;5.80;4.75;;;19.20;99.90;;;;;;4146422;28;20229;-75
2022/10/31 06:14:39;;;;;;;5.82;4.32;;;19.20;99.90;;;;;;4146470;28;21001;-75
2022/10/31 06:16:41;;;;;;;5.82;4.32;;;19.20;99.90;;;;;;4148630;28;20625;-75
2022/10/31 06:18:46;;;;;;;4.78;4.22;;;19.20;99.90;;;;;;4146550;28;20272;-76
2022/10/31 06:20:48;;;;;;;6.25;4.43;;;19.20;99.90;;;;;;4146341;28;20228;-76
2022/10/31 06:22:51;;;;;;;5.10;4.40;;;19.30;99.90;;;;;;4146480;28;20228;-76
2022/10/31 06:24:53;;;;;;;6.78;4.43;;;19.20;99.90;;;;;;4148036;28;20330;-76
2022/10/31 06:26:55;;;;;;;6.15;4.60;;;19.20;99.90;;;;;;4148037;28;20299;-76
2022/10/31 06:28:58;;;;;;;5.70;3.80;;;19.20;99.90;;;;;;4148178;28;20225;-76
2022/10/31 06:31:00;;;;;;;6.75;4.40;;;19.20;99.90;;;;;;4147119;28;20217;-76
2022/10/31 06:33:04;;;;;;;6.60;4.47;;;19.20;99.90;;;;;;4145938;28;20217;-76
2022/10/31 06:35:08;;;;;;;5.90;4.03;;;19.20;99.90;;;;;;4146026;28;21552;-76
2022/10/31 06:37:12;;;;;;;4.45;3.90;;;19.20;99.90;;;;;;4147938;28;20342;-76
2022/10/31 06:39:14;;;;;;;5.47;4.07;;;19.30;99.90;;;;;;4142880;28;20631;-75
2022/10/31 06:41:16;;;;;;;5.50;4.28;;;19.20;99.90;;;;;;4144576;28;20267;-75
2022/10/31 06:43:19;;;;;;;5.43;4.07;;;19.30;99.90;;;;;;4147356;28;20229;-75
2022/10/31 06:45:21;;;;;;;6.40;4.78;;;19.20;99.90;;;;;;4146351;28;20283;-76
2022/10/31 06:47:24;;;;;;;5.20;4.40;;;19.30;99.90;;;;;;4148290;28;20633;-75
2022/10/31 06:49:26;;;;;;;6.00;4.15;;;19.30;99.90;;;;;;4145629;28;20240;-76
2022/10/31 06:51:29;;;;;;;6.63;4.07;;;19.30;99.90;;;;;;4145543;28;20259;-76
2022/10/31 06:53:32;;;;;;;5.45;4.05;;;19.30;99.90;;;;;;4145921;28;20233;-76
2022/10/31 06:55:34;;;;;;;4.95;4.10;;;19.30;99.90;;;;;;4145962;28;20275;-76
2022/10/31 06:57:36;;;;;;;6.30;4.22;;;19.30;99.90;;;;;;4145870;28;20638;-76
2022/10/31 06:59:38;;;;;;;7.03;4.10;;;19.30;99.90;;;;;;4145677;28;20271;-76
2022/10/31 07:01:41;;;;;;;5.82;3.97;;;19.20;99.90;;;;;;4145438;28;20299;-75
2022/10/31 07:03:43;;;;;;;4.97;3.95;;;19.30;99.90;;;;;;4147906;28;20554;-75
2022/10/31 07:05:45;;;;;;;6.07;4.22;;;19.30;99.90;;;;;;4148145;28;21057;-75
2022/10/31 07:07:53;;;;;;;5.50;4.00;;;19.30;99.90;;;;;;4145518;28;20283;-75
2022/10/31 07:09:55;;;;;;;6.70;4.63;;;19.30;99.90;;;;;;4145754;28;20243;-75
2022/10/31 07:11:58;;;;;;;7.40;4.60;;;19.30;99.90;;;;;;4146493;28;20272;-75
2022/10/31 07:14:00;;;;;;;6.43;4.03;;;19.30;99.90;;;;;;4143458;28;20240;-75
2022/10/31 07:16:04;;;;;;;5.13;3.80;;;19.30;99.90;;;;;;4143540;28;20209;-76
2022/10/31 07:18:09;;;;;;;6.75;4.22;;;19.30;99.90;;;;;;4145525;28;20240;-76
2022/10/31 07:20:12;;;;;;;4.55;3.92;;;19.30;99.90;;;;;;4146649;28;20222;-75
2022/10/31 07:22:14;;;;;;;4.72;3.80;;;19.30;99.90;;;;;;4145290;28;20604;-76
2022/10/31 07:24:18;;;;;;;5.38;3.83;;;19.30;99.90;;;;;;4145685;28;20217;-75
2022/10/31 07:26:20;;;;;;;5.18;3.90;;;19.30;99.90;;;;;;4149332;28;20661;-75
2022/10/31 07:28:22;;;;;;;5.40;3.85;;;19.30;99.90;;;;;;4144528;28;20574;-75
2022/10/31 07:30:24;;;;;;;5.72;3.90;;;19.30;99.90;;;;;;4145837;28;20258;-74
2022/10/31 07:32:27;;;;;;;4.45;4.05;;;19.40;99.90;;;;;;4139871;28;20217;-75
2022/10/31 07:34:29;;;;;;;7.18;4.03;;;19.40;99.90;;;;;;4135823;28;20210;-75
2022/10/31 07:36:31;;;;;;;4.82;3.88;;;19.30;99.90;;;;;;4139876;28;20275;-75
2022/10/31 07:38:33;;;;;;;5.30;3.97;;;19.40;99.90;;;;;;4145340;28;20710;-75
2022/10/31 07:40:37;;;;;;;4.57;3.95;;;19.40;99.90;;;;;;4143307;28;20271;-75
2022/10/31 07:42:41;;;;;;;5.75;4.10;;;19.30;99.90;;;;;;4145622;28;20225;-76
2022/10/31 07:44:43;;;;;;;6.18;3.60;;;19.30;99.90;;;;;;4144744;28;20217;-76
2022/10/31 07:46:45;;;;;;;5.68;3.78;;;19.30;99.90;;;;;;4144097;28;20229;-76
2022/10/31 07:48:48;;;;;;;5.82;4.10;;;19.30;99.90;;;;;;4143915;28;20213;-75
2022/10/31 07:50:50;;;;;;;4.28;3.70;;;19.40;99.90;;;;;;4143880;28;20268;-76
2022/10/31 07:53:00;;;;;;;4.80;4.00;;;19.30;99.90;;;;;;4145497;28;20216;-76
2022/10/31 07:55:03;;;;;;;6.30;3.65;;;19.30;99.90;;;;;;4146785;28;20228;-75
2022/10/31 07:57:07;;;;;;;4.75;3.65;;;19.30;99.90;;;;;;4144057;28;20622;-75
2022/10/31 07:59:09;;;;;;;5.35;3.90;;;19.30;99.90;;;;;;4145135;28;20244;-75
2022/10/31 08:01:11;;;;;;;4.68;3.80;;;19.30;99.90;;;;;;4144859;28;20233;-76
2022/10/31 08:03:15;;;;;;;4.60;3.78;;;19.30;99.90;;;;;;4144828;28;20245;-74
2022/10/31 08:05:17;;;;;;;5.70;3.97;;;19.30;99.90;;;;;;4146239;28;20225;-74
2022/10/31 08:07:20;;;;;;;5.57;3.83;;;19.30;99.90;;;;;;4145159;28;20221;-75
2022/10/31 08:09:22;;;;;;;4.45;3.60;;;19.30;99.90;;;;;;4145703;28;20221;-74
2022/10/31 08:11:24;;;;;;;4.90;3.65;;;19.30;99.90;;;;;;4144796;28;20661;-75
2022/10/31 08:13:28;;;;;;;5.53;4.70;;;19.30;99.90;;;;;;4141973;28;20275;-75
2022/10/31 08:15:31;;;;;;;11.23;5.00;;;19.30;99.90;;;;;;4149411;28;20643;-75
2022/10/31 08:17:36;;;;;;;8.73;5.47;;;19.30;99.90;;;;;;4142678;28;20631;-75
2022/10/31 08:19:38;;;;;;;7.32;5.40;;;19.30;99.90;;;;;;4144607;28;20225;-75
2022/10/31 08:21:41;;;;;;;8.95;5.50;;;19.30;99.90;;;;;;4144217;28;20267;-75
2022/10/31 08:23:43;;;;;;;7.78;5.82;;;19.30;99.90;;;;;;4146407;28;20282;-75
2022/10/31 08:25:46;;;;;;;10.07;6.28;;;19.20;99.90;;;;;;4145778;28;20228;-75
2022/10/31 08:27:51;;;;;;;7.32;5.60;;;19.20;99.90;;;;;;4139294;28;20217;-76
2022/10/31 08:29:55;;;;;;;8.35;6.32;;;19.20;99.90;;;;;;4146104;28;20237;-76
2022/10/31 08:31:59;;;;;;;10.02;6.35;;;19.20;99.90;;;;;;4142540;28;20232;-74
2022/10/31 08:34:01;;;;;;;9.18;6.40;;;19.20;99.90;;;;;;4144409;28;20225;-75
2022/10/31 08:36:03;;;;;;;10.70;6.78;;;19.20;99.90;;;;;;4145680;28;20283;-74
2022/10/31 08:38:07;;;;;;;11.75;6.53;;;19.20;99.90;;;;;;4145295;28;20253;-75
2022/10/31 08:40:12;;;;;;;7.95;6.05;;;19.10;99.90;;;;;;4145063;28;20342;-76
2022/10/31 08:42:17;;;;;;;8.77;6.30;;;19.10;99.90;;;;;;4142598;28;20217;-76
2022/10/31 08:44:19;;;;;;;8.18;6.00;;;19.20;99.90;;;;;;4144685;28;20673;-75
2022/10/31 08:46:23;;;;;;;9.25;6.32;;;19.10;99.90;;;;;;4145357;28;20275;-76
2022/10/31 08:48:25;;;;;;;8.57;6.22;;;19.10;99.90;;;;;;4144396;28;20213;-76
2022/10/31 08:50:28;;;;;;;11.05;6.30;;;19.10;99.90;;;;;;4142717;28;20217;-76
2022/10/31 08:52:31;;;;;;;9.20;5.78;;;19.00;99.90;;;;;;4146415;28;20225;-76
2022/10/31 08:54:33;;;;;;;8.30;5.50;;;19.10;99.90;;;;;;4144813;28;20225;-76
2022/10/31 08:56:35;;;;;;;8.15;5.70;;;19.10;99.90;;;;;;4143877;28;20264;-76
2022/10/31 08:58:38;;;;;;;8.20;5.70;;;19.20;99.90;;;;;;4151158;28;20253;-76
2022/10/31 09:00:40;;;;;;;13.48;5.78;;;19.20;99.90;;;;;;4142984;28;20230;-75
2022/10/31 09:02:44;;;;;;;8.57;6.03;;;19.20;99.90;;;;;;4140317;28;20240;-75
2022/10/31 09:04:46;;;;;;;9.90;6.57;;;19.30;99.90;;;;;;4143014;28;20270;-74
2022/10/31 09:06:48;;;;;;;9.88;6.82;;;19.30;99.90;;;;;;4144962;28;20618;-75
2022/10/31 09:08:51;;;;;;;10.27;6.72;;;19.30;99.90;;;;;;4131804;28;20289;-74
2022/10/31 09:10:56;;;;;;;9.65;6.53;;;19.30;99.90;;;;;;4136274;28;20213;-75
2022/10/31 09:12:59;;;;;;;9.65;6.55;;;19.30;99.90;;;;;;4131332;28;20222;-75
2022/10/31 09:15:01;;;;;;;6.78;5.70;;;19.30;99.90;;;;;;4135714;28;20230;-75
2022/10/31 09:17:04;;;;;;;7.78;5.70;;;19.40;99.90;;;;;;4143089;28;20256;-75
2022/10/31 09:19:07;;;;;;;8.93;6.75;;;19.40;99.90;;;;;;4146551;28;20986;-76
2022/10/31 09:21:09;;;;;;;8.65;6.25;;;19.40;99.90;;;;;;4142988;28;20272;-75
2022/10/31 09:23:13;;;;;;;7.30;5.65;;;19.40;99.90;;;;;;4144832;28;20737;-75
2022/10/31 09:25:15;;;;;;;8.77;5.68;;;19.40;99.90;;;;;;4147402;28;22041;-76
2022/10/31 09:27:18;;;;;;;9.30;6.00;;;19.40;99.90;;;;;;4144252;28;20225;-77
2022/10/31 09:29:20;;;;;;;12.82;5.65;;;19.40;99.90;;;;;;4144267;28;20644;-75
2022/10/31 09:31:22;;;;;;;8.57;5.80;;;19.30;99.90;;;;;;4146759;28;20216;-75
2022/10/31 09:33:25;;;;;;;8.57;5.05;;;19.30;99.90;;;;;;4141770;28;20213;-75
2022/10/31 09:35:29;;;;;;;10.15;5.18;;;19.30;99.90;;;;;;4143144;28;20249;-75
2022/10/31 09:37:31;;;;;;;8.68;5.30;;;19.40;99.90;;;;;;4142907;28;21645;-75
2022/10/31 09:39:33;;;;;;;7.25;4.60;;;19.50;99.90;;;;;;4144198;28;20582;-75
2022/10/31 09:41:54;;;;;;;9.60;5.05;;;19.50;99.90;;;;;;4142694;28;20737;-75
2022/10/31 09:44:05;;;;;;;7.90;4.70;;;19.50;99.90;;;;;;4131691;28;20271;-74
2022/10/31 09:46:14;;;;;;;6.72;4.70;;;19.50;99.90;;;;;;4147070;28;20212;-75
2022/10/31 09:48:39;;;;;;;5.82;3.80;;;19.60;99.90;;;;;;4144903;28;20263;-76
2022/10/31 09:50:48;;;;;;;6.43;3.95;;;19.60;99.90;;;;;;4149108;28;20213;-74
2022/10/31 09:52:59;;;;;;;6.93;4.72;;;19.60;99.90;;;;;;4145166;28;20716;-75
2022/10/31 09:55:06;;;;;;;6.28;4.35;;;19.70;99.90;;;;;;4137442;28;20221;-75
2022/10/31 09:57:14;;;;;;;6.05;4.22;;;19.70;99.90;;;;;;4131742;28;20249;-75
2022/10/31 09:59:25;;;;;;;8.27;4.28;;;19.80;99.90;;;;;;4138013;28;20232;-75
2022/10/31 10:01:39;;;;;;;5.30;4.03;;;19.70;99.90;;;;;;4145442;28;20216;-75
2022/10/31 10:03:47;;;;;;;5.68;3.75;;;19.70;99.90;;;;;;4146325;28;20739;-74
2022/10/31 10:05:58;;;;;;;5.38;3.85;;;19.80;99.90;;;;;;4153022;28;20730;-74
2022/10/31 10:08:08;;;;;;;6.43;3.60;;;19.80;99.90;;;;;;4145348;28;20699;-75
2022/10/31 10:10:16;;;;;;;7.15;4.07;;;19.80;99.90;;;;;;4145391;28;20282;-75
2022/10/31 10:12:30;;;;;;;7.30;4.32;;;19.70;99.90;;;;;;4141310;28;20349;-75
2022/10/31 10:14:43;;;;;;;4.93;3.78;;;19.80;99.90;;;;;;4143363;28;20229;-75
2022/10/31 10:17:03;;;;;;;5.45;4.40;;;19.80;99.90;;;;;;4139454;28;20620;-74
2022/10/31 10:19:25;;;;;;;6.03;4.00;;;19.80;99.90;;;;;;4144254;28;20244;-74
2022/10/31 10:21:38;;;;;;;6.35;4.00;;;19.80;99.90;;;;;;4145119;28;20220;-76
2022/10/31 10:23:56;;;;;;;4.55;3.75;;;19.80;99.90;;;;;;4146013;28;20283;-76
2022/10/31 10:26:05;;;;;;;6.63;4.07;;;19.90;99.90;;;;;;4147401;28;20255;-75
2022/10/31 10:28:18;;;;;;;6.25;3.40;;;19.80;99.90;;;;;;4141194;28;20645;-75
2022/10/31 10:30:22;;;;;;;8.93;4.05;;;19.80;99.90;;;;;;4145307;28;20217;-75
2022/10/31 10:32:28;;;;;;;6.05;3.80;;;19.90;99.90;;;;;;4146605;28;20221;-75
2022/10/31 10:34:35;;;;;;;6.45;3.97;;;19.90;99.90;;;;;;4145180;28;20209;-76
2022/10/31 10:36:43;;;;;;;5.22;3.40;;;19.90;99.90;;;;;;4144954;28;20356;-76
2022/10/31 10:38:53;;;;;;;5.15;3.78;;;19.90;99.90;;;;;;4137518;28;20290;-75
2022/10/31 10:40:55;;;;;;;3.90;3.50;;;19.90;99.90;;;;;;4132093;28;20220;-75
2022/10/31 10:43:22;;;;;;;7.43;4.07;;;20.00;99.90;;;;;;4126815;28;20222;-75
2022/10/31 10:47:49;;;;;;;5.20;3.60;;;19.90;99.90;;;;;;4128408;28;20593;-76
2022/10/31 10:49:52;;;;;;;5.30;3.53;;;20.00;99.90;;;;;;4128166;28;20214;-76